sensor_id;sensor_type;location;lat;lon;timestamp;temperature;humidity
4701;DHT22;8724;51.272;6.554;2023-04-03T00:01:52;8.50;99.90
4701;DHT22;8724;51.272;6.554;2023-04-03T00:04:20;8.50;99.90
4701;DHT22;8724;51.272;6.554;2023-04-03T00:06:48;8.50;99.90
4701;DHT22;8724;51.272;6.554;2023-04-03T00:09:17;8.50;99.90
4701;DHT22;8724;51.272;6.554;2023-04-03T00:11:48;8.50;99.90
4701;DHT22;8724;51.272;6.554;2023-04-03T00:14:16;8.40;99.90
4701;DHT22;8724;51.272;6.554;2023-04-03T00:16:45;8.50;99.90
4701;DHT22;8724;51.272;6.554;2023-04-03T00:19:14;8.40;99.90
4701;DHT22;8724;51.272;6.554;2023-04-03T00:21:43;8.40;99.90
4701;DHT22;8724;51.272;6.554;2023-04-03T00:24:11;8.40;99.90
4701;DHT22;8724;51.272;6.554;2023-04-03T00:26:40;8.40;99.90
4701;DHT22;8724;51.272;6.554;2023-04-03T00:29:08;8.40;99.90
4701;DHT22;8724;51.272;6.554;2023-04-03T00:31:41;8.40;99.90
4701;DHT22;8724;51.272;6.554;2023-04-03T00:34:10;8.40;99.90
4701;DHT22;8724;51.272;6.554;2023-04-03T00:36:39;8.30;99.90
4701;DHT22;8724;51.272;6.554;2023-04-03T00:39:08;8.30;99.90
4701;DHT22;8724;51.272;6.554;2023-04-03T00:41:36;8.30;99.90
4701;DHT22;8724;51.272;6.554;2023-04-03T00:44:20;8.60;99.90
4701;DHT22;8724;51.272;6.554;2023-04-03T00:46:48;8.30;99.90
4701;DHT22;8724;51.272;6.554;2023-04-03T00:49:17;8.30;99.90
4701;DHT22;8724;51.272;6.554;2023-04-03T00:51:46;8.30;99.90
4701;DHT22;8724;51.272;6.554;2023-04-03T00:54:15;8.30;99.90
4701;DHT22;8724;51.272;6.554;2023-04-03T00:56:44;8.60;99.90
4701;DHT22;8724;51.272;6.554;2023-04-03T00:59:14;8.20;99.90
4701;DHT22;8724;51.272;6.554;2023-04-03T01:01:44;8.20;99.90
4701;DHT22;8724;51.272;6.554;2023-04-03T01:04:26;8.20;99.90
4701;DHT22;8724;51.272;6.554;2023-04-03T01:06:58;8.20;99.90
4701;DHT22;8724;51.272;6.554;2023-04-03T01:09:29;8.20;99.90
4701;DHT22;8724;51.272;6.554;2023-04-03T01:12:13;8.20;99.90
4701;DHT22;8724;51.272;6.554;2023-04-03T01:14:43;8.10;99.90
4701;DHT22;8724;51.272;6.554;2023-04-03T01:17:30;8.10;99.90
4701;DHT22;8724;51.272;6.554;2023-04-03T01:20:34;8.10;99.90
4701;DHT22;8724;51.272;6.554;2023-04-03T01:23:21;8.10;99.90
4701;DHT22;8724;51.272;6.554;2023-04-03T01:25:52;8.10;99.90
4701;DHT22;8724;51.272;6.554;2023-04-03T01:28:23;8.10;99.90
4701;DHT22;8724;51.272;6.554;2023-04-03T01:31:00;8.10;99.90
4701;DHT22;8724;51.272;6.554;2023-04-03T01:33:35;8.10;99.90
4701;DHT22;8724;51.272;6.554;2023-04-03T01:36:06;8.10;99.90
4701;DHT22;8724;51.272;6.554;2023-04-03T01:38:36;8.00;99.90
4701;DHT22;8724;51.272;6.554;2023-04-03T01:41:05;8.00;99.90
4701;DHT22;8724;51.272;6.554;2023-04-03T01:43:35;8.00;99.90
4701;DHT22;8724;51.272;6.554;2023-04-03T01:46:04;8.00;99.90
4701;DHT22;8724;51.272;6.554;2023-04-03T01:48:35;8.00;99.90
4701;DHT22;8724;51.272;6.554;2023-04-03T01:51:06;8.00;99.90
4701;DHT22;8724;51.272;6.554;2023-04-03T01:53:35;8.00;99.90
4701;DHT22;8724;51.272;6.554;2023-04-03T01:56:05;8.00;99.90
4701;DHT22;8724;51.272;6.554;2023-04-03T01:58:34;8.00;99.90
4701;DHT22;8724;51.272;6.554;2023-04-03T02:01:04;8.00;99.90
4701;DHT22;8724;51.272;6.554;2023-04-03T02:03:37;8.00;99.90
4701;DHT22;8724;51.272;6.554;2023-04-03T02:06:08;8.00;99.90
4701;DHT22;8724;51.272;6.554;2023-04-03T02:08:40;7.90;99.90
4701;DHT22;8724;51.272;6.554;2023-04-03T02:11:11;8.00;99.90
4701;DHT22;8724;51.272;6.554;2023-04-03T02:13:40;8.00;99.90
4701;DHT22;8724;51.272;6.554;2023-04-03T02:16:09;7.90;99.90
4701;DHT22;8724;51.272;6.554;2023-04-03T02:18:39;8.00;99.90
4701;DHT22;8724;51.272;6.554;2023-04-03T02:21:08;8.00;99.90
4701;DHT22;8724;51.272;6.554;2023-04-03T02:23:37;7.90;99.90
4701;DHT22;8724;51.272;6.554;2023-04-03T02:26:07;7.90;99.90
4701;DHT22;8724;51.272;6.554;2023-04-03T02:28:37;8.20;99.90
4701;DHT22;8724;51.272;6.554;2023-04-03T02:31:05;7.90;99.90
4701;DHT22;8724;51.272;6.554;2023-04-03T02:33:36;7.90;99.90
4701;DHT22;8724;51.272;6.554;2023-04-03T02:36:09;7.90;99.90
4701;DHT22;8724;51.272;6.554;2023-04-03T02:38:41;7.90;99.90
4701;DHT22;8724;51.272;6.554;2023-04-03T02:41:11;7.90;99.90
4701;DHT22;8724;51.272;6.554;2023-04-03T02:43:40;7.90;99.90
4701;DHT22;8724;51.272;6.554;2023-04-03T02:46:09;7.90;99.90
4701;DHT22;8724;51.272;6.554;2023-04-03T02:48:37;7.90;99.90
4701;DHT22;8724;51.272;6.554;2023-04-03T02:51:06;7.90;99.90
4701;DHT22;8724;51.272;6.554;2023-04-03T02:53:36;7.90;99.90
4701;DHT22;8724;51.272;6.554;2023-04-03T02:56:10;7.90;99.90
4701;DHT22;8724;51.272;6.554;2023-04-03T02:58:39;7.90;99.90
4701;DHT22;8724;51.272;6.554;2023-04-03T03:01:09;7.90;99.90
4701;DHT22;8724;51.272;6.554;2023-04-03T03:03:37;7.90;99.90
4701;DHT22;8724;51.272;6.554;2023-04-03T03:06:08;7.90;99.90
4701;DHT22;8724;51.272;6.554;2023-04-03T03:08:38;7.90;99.90
4701;DHT22;8724;51.272;6.554;2023-04-03T03:11:07;7.80;99.90
4701;DHT22;8724;51.272;6.554;2023-04-03T03:13:35;7.90;99.90
4701;DHT22;8724;51.272;6.554;2023-04-03T03:16:04;7.90;99.90
4701;DHT22;8724;51.272;6.554;2023-04-03T03:18:34;7.90;99.90
4701;DHT22;8724;51.272;6.554;2023-04-03T03:21:04;7.90;99.90
4701;DHT22;8724;51.272;6.554;2023-04-03T03:23:32;7.90;99.90
4701;DHT22;8724;51.272;6.554;2023-04-03T03:26:05;7.90;99.90
4701;DHT22;8724;51.272;6.554;2023-04-03T03:28:34;7.80;99.90
4701;DHT22;8724;51.272;6.554;2023-04-03T03:31:05;7.80;99.90
4701;DHT22;8724;51.272;6.554;2023-04-03T03:33:36;7.80;99.90
4701;DHT22;8724;51.272;6.554;2023-04-03T03:36:04;7.80;99.90
4701;DHT22;8724;51.272;6.554;2023-04-03T03:38:35;7.80;99.90
4701;DHT22;8724;51.272;6.554;2023-04-03T03:41:05;7.80;99.90
4701;DHT22;8724;51.272;6.554;2023-04-03T03:43:35;7.80;99.90
4701;DHT22;8724;51.272;6.554;2023-04-03T03:46:06;7.70;99.90
4701;DHT22;8724;51.272;6.554;2023-04-03T03:48:35;7.70;99.90
4701;DHT22;8724;51.272;6.554;2023-04-03T03:51:03;7.70;99.90
4701;DHT22;8724;51.272;6.554;2023-04-03T03:53:35;7.70;99.90
4701;DHT22;8724;51.272;6.554;2023-04-03T03:56:09;7.70;99.90
4701;DHT22;8724;51.272;6.554;2023-04-03T03:58:39;7.70;99.90
4701;DHT22;8724;51.272;6.554;2023-04-03T04:01:08;7.70;99.90
4701;DHT22;8724;51.272;6.554;2023-04-03T04:03:42;7.70;99.90
4701;DHT22;8724;51.272;6.554;2023-04-03T04:06:14;7.70;99.90
4701;DHT22;8724;51.272;6.554;2023-04-03T04:08:43;7.70;99.90
4701;DHT22;8724;51.272;6.554;2023-04-03T04:11:14;7.60;99.90
4701;DHT22;8724;51.272;6.554;2023-04-03T04:13:44;7.60;99.90
4701;DHT22;8724;51.272;6.554;2023-04-03T04:16:15;7.60;99.90
4701;DHT22;8724;51.272;6.554;2023-04-03T04:18:45;7.60;99.90
4701;DHT22;8724;51.272;6.554;2023-04-03T04:21:13;7.60;99.90
4701;DHT22;8724;51.272;6.554;2023-04-03T04:23:44;7.60;99.90
4701;DHT22;8724;51.272;6.554;2023-04-03T04:26:14;7.60;99.90
4701;DHT22;8724;51.272;6.554;2023-04-03T04:28:43;7.60;99.90
4701;DHT22;8724;51.272;6.554;2023-04-03T04:31:12;7.50;99.90
4701;DHT22;8724;51.272;6.554;2023-04-03T04:33:41;7.50;99.90
4701;DHT22;8724;51.272;6.554;2023-04-03T04:36:12;7.50;99.90
4701;DHT22;8724;51.272;6.554;2023-04-03T04:38:45;7.50;99.90
4701;DHT22;8724;51.272;6.554;2023-04-03T04:41:15;7.50;99.90
4701;DHT22;8724;51.272;6.554;2023-04-03T04:43:44;7.50;99.90
4701;DHT22;8724;51.272;6.554;2023-04-03T04:46:13;7.50;99.90
4701;DHT22;8724;51.272;6.554;2023-04-03T04:48:47;7.50;99.90
4701;DHT22;8724;51.272;6.554;2023-04-03T04:51:20;7.50;99.90
4701;DHT22;8724;51.272;6.554;2023-04-03T04:53:49;7.50;99.90
4701;DHT22;8724;51.272;6.554;2023-04-03T04:56:21;7.50;99.90
4701;DHT22;8724;51.272;6.554;2023-04-03T04:58:50;7.50;99.90
4701;DHT22;8724;51.272;6.554;2023-04-03T05:01:20;7.40;99.90
4701;DHT22;8724;51.272;6.554;2023-04-03T05:03:59;7.40;99.90
4701;DHT22;8724;51.272;6.554;2023-04-03T05:06:27;7.40;99.90
4701;DHT22;8724;51.272;6.554;2023-04-03T05:08:57;7.40;99.90
4701;DHT22;8724;51.272;6.554;2023-04-03T05:11:29;7.70;99.90
4701;DHT22;8724;51.272;6.554;2023-04-03T05:13:57;7.40;99.90
4701;DHT22;8724;51.272;6.554;2023-04-03T05:16:27;7.40;99.90
4701;DHT22;8724;51.272;6.554;2023-04-03T05:18:56;7.30;99.90
4701;DHT22;8724;51.272;6.554;2023-04-03T05:21:25;7.30;99.90
4701;DHT22;8724;51.272;6.554;2023-04-03T05:24:02;7.30;99.90
4701;DHT22;8724;51.272;6.554;2023-04-03T05:26:34;7.30;99.90
4701;DHT22;8724;51.272;6.554;2023-04-03T05:29:03;7.30;99.90
4701;DHT22;8724;51.272;6.554;2023-04-03T05:31:32;7.30;99.90
4701;DHT22;8724;51.272;6.554;2023-04-03T05:34:02;7.30;99.90
4701;DHT22;8724;51.272;6.554;2023-04-03T05:36:33;7.30;99.90
4701;DHT22;8724;51.272;6.554;2023-04-03T05:39:05;7.30;99.90
4701;DHT22;8724;51.272;6.554;2023-04-03T05:41:38;7.30;99.90
4701;DHT22;8724;51.272;6.554;2023-04-03T05:44:07;7.30;99.90
4701;DHT22;8724;51.272;6.554;2023-04-03T05:46:36;7.30;99.90
4701;DHT22;8724;51.272;6.554;2023-04-03T05:49:07;7.30;99.90
4701;DHT22;8724;51.272;6.554;2023-04-03T05:51:37;7.20;99.90
4701;DHT22;8724;51.272;6.554;2023-04-03T05:54:27;7.20;99.90
4701;DHT22;8724;51.272;6.554;2023-04-03T05:57:05;7.20;99.90
4701;DHT22;8724;51.272;6.554;2023-04-03T05:59:33;7.20;99.90
4701;DHT22;8724;51.272;6.554;2023-04-03T06:02:02;7.20;99.90
4701;DHT22;8724;51.272;6.554;2023-04-03T06:04:30;7.20;99.90
4701;DHT22;8724;51.272;6.554;2023-04-03T06:06:59;7.20;99.90
4701;DHT22;8724;51.272;6.554;2023-04-03T06:09:29;7.20;99.90
4701;DHT22;8724;51.272;6.554;2023-04-03T06:11:59;7.20;99.90
4701;DHT22;8724;51.272;6.554;2023-04-03T06:14:30;7.20;99.90
4701;DHT22;8724;51.272;6.554;2023-04-03T06:16:58;7.20;99.90
4701;DHT22;8724;51.272;6.554;2023-04-03T06:19:28;7.20;99.90
4701;DHT22;8724;51.272;6.554;2023-04-03T06:21:57;7.20;99.90
4701;DHT22;8724;51.272;6.554;2023-04-03T06:24:26;7.20;99.90
4701;DHT22;8724;51.272;6.554;2023-04-03T06:26:55;7.20;99.90
4701;DHT22;8724;51.272;6.554;2023-04-03T06:29:24;7.20;99.90
4701;DHT22;8724;51.272;6.554;2023-04-03T06:31:54;7.20;99.90
4701;DHT22;8724;51.272;6.554;2023-04-03T06:34:22;7.20;99.90
4701;DHT22;8724;51.272;6.554;2023-04-03T06:36:51;7.20;99.90
4701;DHT22;8724;51.272;6.554;2023-04-03T06:39:21;7.20;99.90
4701;DHT22;8724;51.272;6.554;2023-04-03T06:41:51;7.20;99.90
4701;DHT22;8724;51.272;6.554;2023-04-03T06:44:27;7.20;99.90
4701;DHT22;8724;51.272;6.554;2023-04-03T06:46:57;7.20;99.90
4701;DHT22;8724;51.272;6.554;2023-04-03T06:49:25;7.20;99.90
4701;DHT22;8724;51.272;6.554;2023-04-03T06:51:54;7.20;99.90
4701;DHT22;8724;51.272;6.554;2023-04-03T06:54:23;7.20;99.90
4701;DHT22;8724;51.272;6.554;2023-04-03T06:56:52;7.20;99.90
4701;DHT22;8724;51.272;6.554;2023-04-03T06:59:20;7.20;99.90
4701;DHT22;8724;51.272;6.554;2023-04-03T07:01:48;7.20;99.90
4701;DHT22;8724;51.272;6.554;2023-04-03T07:04:19;7.30;99.90
4701;DHT22;8724;51.272;6.554;2023-04-03T07:06:48;7.30;99.90
4701;DHT22;8724;51.272;6.554;2023-04-03T07:09:16;7.50;99.90
4701;DHT22;8724;51.272;6.554;2023-04-03T07:11:45;7.30;99.90
4701;DHT22;8724;51.272;6.554;2023-04-03T07:14:13;7.30;99.90
4701;DHT22;8724;51.272;6.554;2023-04-03T07:16:42;7.30;99.90
4701;DHT22;8724;51.272;6.554;2023-04-03T07:19:10;7.30;99.90
4701;DHT22;8724;51.272;6.554;2023-04-03T07:21:40;7.30;99.90
4701;DHT22;8724;51.272;6.554;2023-04-03T07:24:10;7.30;99.90
4701;DHT22;8724;51.272;6.554;2023-04-03T07:26:42;7.30;99.90
4701;DHT22;8724;51.272;6.554;2023-04-03T07:29:12;7.30;99.90
4701;DHT22;8724;51.272;6.554;2023-04-03T07:31:41;7.30;99.90
4701;DHT22;8724;51.272;6.554;2023-04-03T07:34:09;7.30;99.90
4701;DHT22;8724;51.272;6.554;2023-04-03T07:36:39;7.30;99.90
4701;DHT22;8724;51.272;6.554;2023-04-03T07:39:08;7.30;99.90
4701;DHT22;8724;51.272;6.554;2023-04-03T07:41:36;7.40;99.90
4701;DHT22;8724;51.272;6.554;2023-04-03T07:44:05;7.40;99.90
4701;DHT22;8724;51.272;6.554;2023-04-03T07:46:40;7.30;99.90
4701;DHT22;8724;51.272;6.554;2023-04-03T07:49:09;7.40;99.90
4701;DHT22;8724;51.272;6.554;2023-04-03T07:51:38;7.30;99.90
4701;DHT22;8724;51.272;6.554;2023-04-03T07:54:08;7.40;99.90
4701;DHT22;8724;51.272;6.554;2023-04-03T07:56:36;7.40;99.90
4701;DHT22;8724;51.272;6.554;2023-04-03T07:59:05;7.40;99.90
4701;DHT22;8724;51.272;6.554;2023-04-03T08:01:33;7.40;99.90
4701;DHT22;8724;51.272;6.554;2023-04-03T08:04:02;7.40;99.90
4701;DHT22;8724;51.272;6.554;2023-04-03T08:06:31;7.40;99.90
4701;DHT22;8724;51.272;6.554;2023-04-03T08:09:15;7.50;99.90
4701;DHT22;8724;51.272;6.554;2023-04-03T08:11:43;7.50;99.90
4701;DHT22;8724;51.272;6.554;2023-04-03T08:14:12;7.50;99.90
4701;DHT22;8724;51.272;6.554;2023-04-03T08:16:45;7.50;99.90
4701;DHT22;8724;51.272;6.554;2023-04-03T08:19:15;7.50;99.90
4701;DHT22;8724;51.272;6.554;2023-04-03T08:21:52;7.50;99.90
4701;DHT22;8724;51.272;6.554;2023-04-03T08:24:22;7.70;99.90
4701;DHT22;8724;51.272;6.554;2023-04-03T08:26:51;7.50;99.90
4701;DHT22;8724;51.272;6.554;2023-04-03T08:29:19;7.60;99.90
4701;DHT22;8724;51.272;6.554;2023-04-03T08:31:48;7.60;99.90
4701;DHT22;8724;51.272;6.554;2023-04-03T08:34:18;7.60;99.90
4701;DHT22;8724;51.272;6.554;2023-04-03T08:36:47;7.70;99.90
4701;DHT22;8724;51.272;6.554;2023-04-03T08:39:16;7.70;99.90
4701;DHT22;8724;51.272;6.554;2023-04-03T08:41:46;7.70;99.90
4701;DHT22;8724;51.272;6.554;2023-04-03T08:44:21;7.70;99.90
4701;DHT22;8724;51.272;6.554;2023-04-03T08:47:04;7.70;99.90
4701;DHT22;8724;51.272;6.554;2023-04-03T08:49:41;7.70;99.90
4701;DHT22;8724;51.272;6.554;2023-04-03T08:52:18;7.70;99.90
4701;DHT22;8724;51.272;6.554;2023-04-03T08:54:53;7.80;99.90
4701;DHT22;8724;51.272;6.554;2023-04-03T08:57:29;7.80;99.90
4701;DHT22;8724;51.272;6.554;2023-04-03T09:00:15;7.80;99.90
4701;DHT22;8724;51.272;6.554;2023-04-03T09:02:47;7.80;99.90
4701;DHT22;8724;51.272;6.554;2023-04-03T09:05:18;7.80;99.90
4701;DHT22;8724;51.272;6.554;2023-04-03T09:07:54;7.80;99.90
4701;DHT22;8724;51.272;6.554;2023-04-03T09:10:28;7.90;99.90
4701;DHT22;8724;51.272;6.554;2023-04-03T09:13:05;7.90;99.90
4701;DHT22;8724;51.272;6.554;2023-04-03T09:15:35;7.90;99.90
4701;DHT22;8724;51.272;6.554;2023-04-03T09:18:12;7.90;99.90
4701;DHT22;8724;51.272;6.554;2023-04-03T09:20:48;7.90;99.90
4701;DHT22;8724;51.272;6.554;2023-04-03T09:23:26;7.90;99.90
4701;DHT22;8724;51.272;6.554;2023-04-03T09:26:02;7.90;99.90
4701;DHT22;8724;51.272;6.554;2023-04-03T09:28:37;7.90;99.90
4701;DHT22;8724;51.272;6.554;2023-04-03T09:31:20;7.90;99.90
4701;DHT22;8724;51.272;6.554;2023-04-03T09:33:50;7.90;99.90
4701;DHT22;8724;51.272;6.554;2023-04-03T09:36:44;7.90;99.90
4701;DHT22;8724;51.272;6.554;2023-04-03T09:39:15;8.00;99.90
4701;DHT22;8724;51.272;6.554;2023-04-03T09:41:56;8.00;99.90
4701;DHT22;8724;51.272;6.554;2023-04-03T09:44:29;8.00;99.90
4701;DHT22;8724;51.272;6.554;2023-04-03T09:46:58;8.00;99.90
4701;DHT22;8724;51.272;6.554;2023-04-03T09:49:27;8.10;99.90
4701;DHT22;8724;51.272;6.554;2023-04-03T09:51:55;8.10;99.90
4701;DHT22;8724;51.272;6.554;2023-04-03T09:54:35;8.10;99.90
4701;DHT22;8724;51.272;6.554;2023-04-03T09:57:12;8.10;99.90
4701;DHT22;8724;51.272;6.554;2023-04-03T09:59:46;8.10;99.90
4701;DHT22;8724;51.272;6.554;2023-04-03T10:02:28;8.10;99.90
4701;DHT22;8724;51.272;6.554;2023-04-03T10:04:58;8.20;99.90
4701;DHT22;8724;51.272;6.554;2023-04-03T10:07:37;8.20;99.90
4701;DHT22;8724;51.272;6.554;2023-04-03T10:10:19;8.20;99.90
4701;DHT22;8724;51.272;6.554;2023-04-03T10:13:04;8.20;99.90
4701;DHT22;8724;51.272;6.554;2023-04-03T10:15:37;8.20;99.90
4701;DHT22;8724;51.272;6.554;2023-04-03T10:18:21;8.20;99.90
4701;DHT22;8724;51.272;6.554;2023-04-03T10:20:57;8.20;99.90
4701;DHT22;8724;51.272;6.554;2023-04-03T10:23:35;8.30;99.90
4701;DHT22;8724;51.272;6.554;2023-04-03T10:26:14;8.30;99.90
4701;DHT22;8724;51.272;6.554;2023-04-03T10:28:50;8.30;99.90
4701;DHT22;8724;51.272;6.554;2023-04-03T10:31:26;8.30;99.90
4701;DHT22;8724;51.272;6.554;2023-04-03T10:34:02;8.40;99.90
4701;DHT22;8724;51.272;6.554;2023-04-03T10:36:40;8.40;99.90
4701;DHT22;8724;51.272;6.554;2023-04-03T10:39:19;8.40;99.90
4701;DHT22;8724;51.272;6.554;2023-04-03T10:42:00;8.40;99.90
4701;DHT22;8724;51.272;6.554;2023-04-03T10:44:54;8.40;99.90
4701;DHT22;8724;51.272;6.554;2023-04-03T10:47:34;8.50;99.90
4701;DHT22;8724;51.272;6.554;2023-04-03T10:50:21;8.50;99.90
4701;DHT22;8724;51.272;6.554;2023-04-03T10:52:57;8.50;99.90
4701;DHT22;8724;51.272;6.554;2023-04-03T10:55:35;8.50;99.90
4701;DHT22;8724;51.272;6.554;2023-04-03T10:58:06;8.50;99.90
4701;DHT22;8724;51.272;6.554;2023-04-03T11:00:41;8.60;99.90
4701;DHT22;8724;51.272;6.554;2023-04-03T11:03:14;8.60;99.90
4701;DHT22;8724;51.272;6.554;2023-04-03T11:05:46;8.60;99.90
4701;DHT22;8724;51.272;6.554;2023-04-03T11:08:24;8.60;99.90
4701;DHT22;8724;51.272;6.554;2023-04-03T11:10:57;8.60;99.90
4701;DHT22;8724;51.272;6.554;2023-04-03T11:13:33;8.70;99.90
4701;DHT22;8724;51.272;6.554;2023-04-03T11:16:03;8.70;99.90
4701;DHT22;8724;51.272;6.554;2023-04-03T11:18:37;8.70;99.90
4701;DHT22;8724;51.272;6.554;2023-04-03T11:21:13;8.70;99.90
4701;DHT22;8724;51.272;6.554;2023-04-03T11:23:44;8.80;99.90
4701;DHT22;8724;51.272;6.554;2023-04-03T11:26:19;8.80;99.90
4701;DHT22;8724;51.272;6.554;2023-04-03T11:28:52;8.80;99.90
4701;DHT22;8724;51.272;6.554;2023-04-03T11:31:33;8.90;99.90
4701;DHT22;8724;51.272;6.554;2023-04-03T11:34:19;8.90;99.90
4701;DHT22;8724;51.272;6.554;2023-04-03T11:36:53;8.90;99.90
4701;DHT22;8724;51.272;6.554;2023-04-03T11:39:25;8.90;99.90
4701;DHT22;8724;51.272;6.554;2023-04-03T11:41:55;8.90;99.90
4701;DHT22;8724;51.272;6.554;2023-04-03T11:44:38;9.00;99.90
4701;DHT22;8724;51.272;6.554;2023-04-03T11:47:07;9.00;99.90
4701;DHT22;8724;51.272;6.554;2023-04-03T11:49:56;9.00;99.90
4701;DHT22;8724;51.272;6.554;2023-04-03T11:55:57;9.00;99.90
4701;DHT22;8724;51.272;6.554;2023-04-03T11:58:28;9.10;99.90
4701;DHT22;8724;51.272;6.554;2023-04-03T12:01:03;9.10;99.90
4701;DHT22;8724;51.272;6.554;2023-04-03T12:03:58;9.10;99.90
4701;DHT22;8724;51.272;6.554;2023-04-03T12:10:13;9.20;99.90
4701;DHT22;8724;51.272;6.554;2023-04-03T12:12:58;9.20;99.90
4701;DHT22;8724;51.272;6.554;2023-04-03T12:15:51;9.30;99.90
4701;DHT22;8724;51.272;6.554;2023-04-03T12:18:42;9.30;99.90
4701;DHT22;8724;51.272;6.554;2023-04-03T12:21:11;9.30;99.90
4701;DHT22;8724;51.272;6.554;2023-04-03T12:24:01;9.40;99.90
4701;DHT22;8724;51.272;6.554;2023-04-03T12:26:35;9.40;99.90
4701;DHT22;8724;51.272;6.554;2023-04-03T12:29:17;9.40;99.90
4701;DHT22;8724;51.272;6.554;2023-04-03T12:31:59;9.40;99.90
4701;DHT22;8724;51.272;6.554;2023-04-03T12:34:49;9.40;99.90
4701;DHT22;8724;51.272;6.554;2023-04-03T12:37:34;9.50;99.90
4701;DHT22;8724;51.272;6.554;2023-04-03T12:40:10;9.40;99.90
4701;DHT22;8724;51.272;6.554;2023-04-03T12:43:09;9.50;99.90
4701;DHT22;8724;51.272;6.554;2023-04-03T12:45:43;9.50;99.90
4701;DHT22;8724;51.272;6.554;2023-04-03T12:48:15;9.50;99.90
4701;DHT22;8724;51.272;6.554;2023-04-03T12:50:46;9.60;99.90
4701;DHT22;8724;51.272;6.554;2023-04-03T12:53:18;9.60;99.90
4701;DHT22;8724;51.272;6.554;2023-04-03T12:55:47;9.60;99.90
4701;DHT22;8724;51.272;6.554;2023-04-03T12:58:22;9.60;99.90
4701;DHT22;8724;51.272;6.554;2023-04-03T13:01:03;9.70;99.90
4701;DHT22;8724;51.272;6.554;2023-04-03T13:03:40;9.70;99.90
4701;DHT22;8724;51.272;6.554;2023-04-03T13:06:17;9.70;99.90
4701;DHT22;8724;51.272;6.554;2023-04-03T13:08:50;9.70;99.90
4701;DHT22;8724;51.272;6.554;2023-04-03T13:11:20;9.70;99.90
4701;DHT22;8724;51.272;6.554;2023-04-03T13:14:02;9.80;99.90
4701;DHT22;8724;51.272;6.554;2023-04-03T13:16:33;9.80;99.90
4701;DHT22;8724;51.272;6.554;2023-04-03T13:19:02;9.80;99.90
4701;DHT22;8724;51.272;6.554;2023-04-03T13:21:32;9.80;99.90
4701;DHT22;8724;51.272;6.554;2023-04-03T13:24:03;9.80;99.90
4701;DHT22;8724;51.272;6.554;2023-04-03T13:26:42;9.90;99.90
4701;DHT22;8724;51.272;6.554;2023-04-03T13:29:23;9.90;99.90
4701;DHT22;8724;51.272;6.554;2023-04-03T13:31:59;10.00;99.90
4701;DHT22;8724;51.272;6.554;2023-04-03T13:34:36;10.00;99.90
4701;DHT22;8724;51.272;6.554;2023-04-03T13:37:05;10.00;99.90
4701;DHT22;8724;51.272;6.554;2023-04-03T13:39:36;10.00;99.90
4701;DHT22;8724;51.272;6.554;2023-04-03T13:42:16;10.00;99.90
4701;DHT22;8724;51.272;6.554;2023-04-03T13:44:46;10.10;99.90
4701;DHT22;8724;51.272;6.554;2023-04-03T13:47:18;10.10;99.90
4701;DHT22;8724;51.272;6.554;2023-04-03T13:50:00;10.20;99.90
4701;DHT22;8724;51.272;6.554;2023-04-03T13:52:32;10.20;99.90
4701;DHT22;8724;51.272;6.554;2023-04-03T13:55:16;10.20;99.90
4701;DHT22;8724;51.272;6.554;2023-04-03T13:57:55;10.30;99.90
4701;DHT22;8724;51.272;6.554;2023-04-03T14:00:34;10.30;99.90
4701;DHT22;8724;51.272;6.554;2023-04-03T14:03:12;10.30;99.90
4701;DHT22;8724;51.272;6.554;2023-04-03T14:05:41;10.40;99.90
4701;DHT22;8724;51.272;6.554;2023-04-03T14:08:09;10.40;99.90
4701;DHT22;8724;51.272;6.554;2023-04-03T14:10:38;10.40;99.90
4701;DHT22;8724;51.272;6.554;2023-04-03T14:13:11;10.40;99.90
4701;DHT22;8724;51.272;6.554;2023-04-03T14:15:41;10.40;99.90
4701;DHT22;8724;51.272;6.554;2023-04-03T14:18:11;10.50;99.90
4701;DHT22;8724;51.272;6.554;2023-04-03T14:20:40;10.50;99.90
4701;DHT22;8724;51.272;6.554;2023-04-03T14:23:09;10.50;99.90
4701;DHT22;8724;51.272;6.554;2023-04-03T14:25:40;10.50;99.90
4701;DHT22;8724;51.272;6.554;2023-04-03T14:28:15;10.50;99.90
4701;DHT22;8724;51.272;6.554;2023-04-03T14:30:47;10.50;99.90
4701;DHT22;8724;51.272;6.554;2023-04-03T14:33:18;10.50;99.90
4701;DHT22;8724;51.272;6.554;2023-04-03T14:35:48;10.60;99.90
4701;DHT22;8724;51.272;6.554;2023-04-03T14:38:23;10.60;99.90
4701;DHT22;8724;51.272;6.554;2023-04-03T14:40:53;10.60;99.90
4701;DHT22;8724;51.272;6.554;2023-04-03T14:43:40;10.60;99.90
4701;DHT22;8724;51.272;6.554;2023-04-03T14:46:13;10.60;99.90
4701;DHT22;8724;51.272;6.554;2023-04-03T14:48:43;10.60;99.90
4701;DHT22;8724;51.272;6.554;2023-04-03T14:51:13;10.60;99.50
4701;DHT22;8724;51.272;6.554;2023-04-03T14:53:43;10.60;99.40
4701;DHT22;8724;51.272;6.554;2023-04-03T14:56:16;10.60;99.70
4701;DHT22;8724;51.272;6.554;2023-04-03T14:58:45;10.70;99.90
4701;DHT22;8724;51.272;6.554;2023-04-03T15:01:18;10.70;99.90
4701;DHT22;8724;51.272;6.554;2023-04-03T15:03:46;10.70;99.80
4701;DHT22;8724;51.272;6.554;2023-04-03T15:06:16;10.70;99.30
4701;DHT22;8724;51.272;6.554;2023-04-03T15:08:46;10.70;99.50
4701;DHT22;8724;51.272;6.554;2023-04-03T15:11:15;10.80;99.80
4701;DHT22;8724;51.272;6.554;2023-04-03T15:13:43;10.80;99.80
4701;DHT22;8724;51.272;6.554;2023-04-03T15:16:17;10.80;99.60
4701;DHT22;8724;51.272;6.554;2023-04-03T15:18:47;10.80;99.50
4701;DHT22;8724;51.272;6.554;2023-04-03T15:21:15;10.80;99.60
4701;DHT22;8724;51.272;6.554;2023-04-03T15:23:44;10.80;99.50
4701;DHT22;8724;51.272;6.554;2023-04-03T15:26:12;10.80;98.90
4701;DHT22;8724;51.272;6.554;2023-04-03T15:28:42;10.90;99.00
4701;DHT22;8724;51.272;6.554;2023-04-03T15:31:11;10.90;99.10
4701;DHT22;8724;51.272;6.554;2023-04-03T15:33:40;10.90;99.20
4701;DHT22;8724;51.272;6.554;2023-04-03T15:36:09;10.90;99.60
4701;DHT22;8724;51.272;6.554;2023-04-03T15:38:43;10.90;99.80
4701;DHT22;8724;51.272;6.554;2023-04-03T15:41:11;11.00;99.90
4701;DHT22;8724;51.272;6.554;2023-04-03T15:43:40;11.00;99.80
4701;DHT22;8724;51.272;6.554;2023-04-03T15:46:08;11.00;99.80
4701;DHT22;8724;51.272;6.554;2023-04-03T15:48:37;11.10;99.90
4701;DHT22;8724;51.272;6.554;2023-04-03T15:51:07;11.10;99.90
4701;DHT22;8724;51.272;6.554;2023-04-03T15:53:36;11.10;99.40
4701;DHT22;8724;51.272;6.554;2023-04-03T15:56:04;11.10;99.40
4701;DHT22;8724;51.272;6.554;2023-04-03T15:58:35;11.10;99.40
4701;DHT22;8724;51.272;6.554;2023-04-03T16:01:03;11.20;99.40
4701;DHT22;8724;51.272;6.554;2023-04-03T16:03:32;11.20;99.50
4701;DHT22;8724;51.272;6.554;2023-04-03T16:06:01;11.20;99.70
4701;DHT22;8724;51.272;6.554;2023-04-03T16:08:31;11.20;99.40
4701;DHT22;8724;51.272;6.554;2023-04-03T16:10:59;11.20;99.30
4701;DHT22;8724;51.272;6.554;2023-04-03T16:13:28;11.20;99.00
4701;DHT22;8724;51.272;6.554;2023-04-03T16:15:56;11.30;99.00
4701;DHT22;8724;51.272;6.554;2023-04-03T16:18:29;11.30;98.80
4701;DHT22;8724;51.272;6.554;2023-04-03T16:20:58;11.30;98.70
4701;DHT22;8724;51.272;6.554;2023-04-03T16:23:27;11.30;98.50
4701;DHT22;8724;51.272;6.554;2023-04-03T16:25:57;11.30;98.30
4701;DHT22;8724;51.272;6.554;2023-04-03T16:28:25;11.30;98.10
4701;DHT22;8724;51.272;6.554;2023-04-03T16:30:53;11.30;98.20
4701;DHT22;8724;51.272;6.554;2023-04-03T16:33:22;11.30;98.20
4701;DHT22;8724;51.272;6.554;2023-04-03T16:35:52;11.30;98.20
4701;DHT22;8724;51.272;6.554;2023-04-03T16:38:20;11.30;97.90
4701;DHT22;8724;51.272;6.554;2023-04-03T16:40:49;11.30;98.00
4701;DHT22;8724;51.272;6.554;2023-04-03T16:43:20;11.30;98.00
4701;DHT22;8724;51.272;6.554;2023-04-03T16:45:49;11.40;98.50
4701;DHT22;8724;51.272;6.554;2023-04-03T16:48:17;11.40;98.40
4701;DHT22;8724;51.272;6.554;2023-04-03T16:50:46;11.40;98.50
4701;DHT22;8724;51.272;6.554;2023-04-03T16:53:17;11.40;98.00
4701;DHT22;8724;51.272;6.554;2023-04-03T16:55:46;11.40;97.50